createdAt,value
2023-01-10T00:02:56.012Z,7.24
2023-01-10T00:07:55.933Z,7.31
2023-01-10T00:12:55.836Z,7.40
2023-01-10T00:17:55.800Z,7.37
2023-01-10T00:22:55.750Z,7.38
2023-01-10T00:27:55.642Z,7.37
2023-01-10T00:32:55.596Z,7.32
2023-01-10T00:37:55.540Z,7.34
2023-01-10T00:42:55.444Z,7.37
2023-01-10T00:47:55.408Z,7.44
2023-01-10T00:52:55.333Z,7.47
2023-01-10T00:57:55.302Z,7.47
2023-01-10T01:02:55.205Z,7.52
2023-01-10T01:07:55.136Z,7.55
2023-01-10T01:12:55.059Z,7.58
2023-01-10T01:17:55.041Z,7.60
2023-01-10T01:22:54.923Z,7.63
2023-01-10T01:27:54.858Z,7.56
2023-01-10T01:32:54.811Z,7.49
2023-01-10T01:37:54.736Z,7.47
2023-01-10T01:42:54.659Z,7.49
2023-01-10T01:47:54.627Z,7.50
2023-01-10T01:52:54.532Z,7.40
2023-01-10T01:57:54.539Z,7.38
2023-01-10T02:03:02.561Z,7.37
2023-01-10T02:07:55.353Z,7.37
2023-01-10T02:12:54.328Z,7.29
2023-01-10T02:17:54.527Z,7.26
2023-01-10T02:22:54.151Z,7.22
2023-01-10T02:27:54.082Z,7.23
2023-01-10T02:33:04.523Z,7.16
2023-01-10T02:37:54.946Z,7.17
2023-01-10T02:42:53.890Z,7.15
2023-01-10T02:47:53.803Z,7.17
2023-01-10T02:52:53.758Z,7.23
2023-01-10T02:57:53.672Z,7.23
2023-01-10T03:02:53.666Z,7.23
2023-01-10T03:07:53.553Z,7.15
2023-01-10T03:12:53.488Z,7.15
2023-01-10T03:17:53.443Z,7.08
2023-01-10T03:22:53.345Z,7.04
2023-01-10T03:27:53.317Z,6.95
2023-01-10T03:32:53.215Z,6.97
2023-01-10T03:37:53.183Z,6.95
2023-01-10T03:42:53.115Z,6.89
2023-01-10T03:47:53.025Z,6.90
2023-01-10T03:52:52.972Z,6.97
2023-01-10T03:57:52.985Z,7.02
2023-01-10T04:02:52.882Z,7.01
2023-01-10T04:07:52.782Z,6.99
2023-01-10T04:12:52.715Z,6.99
2023-01-10T04:17:52.685Z,7.02
2023-01-10T04:22:52.609Z,7.05
2023-01-10T04:27:52.530Z,7.12
2023-01-10T04:32:52.493Z,7.09
2023-01-10T04:37:52.447Z,7.09
2023-01-10T04:42:52.315Z,7.09
2023-01-10T04:47:52.249Z,7.13
2023-01-10T04:52:52.233Z,7.12
2023-01-10T04:57:52.126Z,7.08
2023-01-10T05:02:52.171Z,7.07
2023-01-10T05:07:52.016Z,7.05
2023-01-10T05:12:51.938Z,7.01
2023-01-10T05:17:51.863Z,7.04
2023-01-10T05:22:51.801Z,7.07
2023-01-10T05:27:51.765Z,7.12
2023-01-10T05:32:51.668Z,7.22
2023-01-10T05:37:51.607Z,7.20
2023-01-10T05:42:51.601Z,7.13
2023-01-10T05:47:51.473Z,7.02
2023-01-10T05:52:58.598Z,7.09
2023-01-10T05:57:59.419Z,7.15
2023-01-10T06:02:51.364Z,7.12
2023-01-10T06:07:51.199Z,7.15
2023-01-10T06:12:51.150Z,7.16
2023-01-10T06:17:51.087Z,7.13
2023-01-10T06:22:51.043Z,7.12
2023-01-10T06:27:50.958Z,7.12
2023-01-10T06:32:50.951Z,7.08
2023-01-10T06:37:50.832Z,7.09
2023-01-10T06:42:50.780Z,7.15
2023-01-10T06:47:50.689Z,7.12
2023-01-10T06:52:50.632Z,7.02
2023-01-10T06:57:50.870Z,6.98
2023-01-10T07:02:50.525Z,6.90
2023-01-10T07:07:50.459Z,6.86
2023-01-10T07:12:50.392Z,6.87
2023-01-10T07:17:50.305Z,6.90
2023-01-10T07:22:50.302Z,6.90
2023-01-10T07:27:50.198Z,6.99
2023-01-10T07:32:50.150Z,7.04
2023-01-10T07:37:54.273Z,7.02
2023-01-10T07:42:50.048Z,7.08
2023-01-10T07:47:50.011Z,7.16
2023-01-10T07:52:49.845Z,7.17
2023-01-10T07:57:49.853Z,7.16
2023-01-10T08:02:49.785Z,7.16
2023-01-10T08:07:49.683Z,7.16
2023-01-10T08:12:49.578Z,7.26
2023-01-10T08:17:49.536Z,7.31
2023-01-10T08:22:49.497Z,7.31
2023-01-10T08:27:49.408Z,7.31
2023-01-10T08:32:49.363Z,7.42
2023-01-10T08:37:49.522Z,7.42
2023-01-10T08:42:49.213Z,7.45
2023-01-10T08:47:49.123Z,7.55
2023-01-10T08:52:49.101Z,7.49
2023-01-10T08:57:49.034Z,7.31
2023-01-10T09:02:48.961Z,7.15
2023-01-10T09:07:48.915Z,7.05
2023-01-10T09:12:49.133Z,7.26
2023-01-10T09:17:48.793Z,7.47
2023-01-10T09:22:48.695Z,7.60
2023-01-10T09:27:55.598Z,7.79
2023-01-10T09:32:48.519Z,7.99
2023-01-10T09:37:48.473Z,7.90
2023-01-10T09:42:48.387Z,7.56
2023-01-10T09:47:48.366Z,7.45
2023-01-10T09:52:48.304Z,7.37
2023-01-10T09:57:48.229Z,7.27
2023-01-10T10:02:48.198Z,7.15
2023-01-10T10:07:48.128Z,7.23
2023-01-10T10:12:48.021Z,7.20
2023-01-10T10:17:47.984Z,7.34
2023-01-10T10:22:47.911Z,7.44
2023-01-10T10:27:47.869Z,7.56
2023-01-10T10:32:47.771Z,7.87
2023-01-10T10:37:47.723Z,8.25
2023-01-10T10:42:47.610Z,8.42
2023-01-10T10:47:47.604Z,8.99
2023-01-10T10:52:47.520Z,9.12
2023-01-10T10:57:59.459Z,9.25
2023-01-10T11:02:48.736Z,9.01
2023-01-10T11:07:47.405Z,9.18
2023-01-10T11:12:47.233Z,9.12
2023-01-10T11:17:47.167Z,9.09
2023-01-10T11:22:47.084Z,9.09
2023-01-10T11:27:47.044Z,8.96
2023-01-10T11:32:46.957Z,8.83
2023-01-10T11:37:46.933Z,9.04
2023-01-10T11:42:46.811Z,9.15
2023-01-10T11:47:46.822Z,9.15
2023-01-10T11:52:46.741Z,8.99
2023-01-10T11:57:46.651Z,9.28
2023-01-10T12:02:46.588Z,9.50
2023-01-10T12:07:46.535Z,9.40
2023-01-10T12:12:46.436Z,9.28
2023-01-10T12:17:47.125Z,9.24
2023-01-10T12:22:46.303Z,9.31
2023-01-10T12:27:46.264Z,9.16
2023-01-10T12:32:46.141Z,8.96
2023-01-10T12:37:46.178Z,8.99
2023-01-10T12:42:46.127Z,9.12
2023-01-10T12:47:46.067Z,9.25
2023-01-10T12:52:45.928Z,9.30
2023-01-10T12:57:46.544Z,9.24
2023-01-10T13:02:52.876Z,9.23
2023-01-10T13:07:52.734Z,9.32
2023-01-10T13:12:45.620Z,9.38
2023-01-10T13:17:45.571Z,9.27
2023-01-10T13:22:45.513Z,9.30
2023-01-10T13:27:45.508Z,9.32
2023-01-10T13:32:45.365Z,9.28
2023-01-10T13:37:45.306Z,9.25
2023-01-10T13:42:45.235Z,9.12
2023-01-10T13:47:45.187Z,9.05
2023-01-10T13:52:45.115Z,8.94
2023-01-10T13:57:45.317Z,8.84
2023-01-10T14:02:44.939Z,8.73
2023-01-10T14:07:44.918Z,8.73
2023-01-10T14:12:44.821Z,8.63
2023-01-10T14:17:44.796Z,8.68
2023-01-10T14:22:44.736Z,8.69
2023-01-10T14:27:44.683Z,8.65
2023-01-10T14:32:44.614Z,8.58
2023-01-10T14:37:44.606Z,8.53
2023-01-10T14:42:44.572Z,8.50
2023-01-10T14:47:44.416Z,8.42
2023-01-10T14:52:44.343Z,8.40
2023-01-10T14:57:44.247Z,8.35
2023-01-10T15:02:44.185Z,8.26
2023-01-10T15:07:44.118Z,8.21
2023-01-10T15:12:44.062Z,8.14
2023-01-10T15:17:44.018Z,8.04
2023-01-10T15:22:44.062Z,8.03
2023-01-10T15:27:43.918Z,8.00
2023-01-10T15:32:43.819Z,7.94
2023-01-10T15:37:43.721Z,7.96
2023-01-10T15:42:43.751Z,7.92
2023-01-10T15:47:43.615Z,7.93
2023-01-10T15:52:43.521Z,7.87
2023-01-10T15:57:43.485Z,7.84
2023-01-10T16:02:43.702Z,7.79
2023-01-10T16:07:43.359Z,7.75
2023-01-10T16:12:43.427Z,7.72
2023-01-10T16:17:43.233Z,7.71
2023-01-10T16:22:43.237Z,7.66
2023-01-10T16:27:43.104Z,7.52
2023-01-10T16:32:43.056Z,7.52
2023-01-10T16:37:42.935Z,7.50
2023-01-10T16:42:42.921Z,7.53
2023-01-10T16:47:49.800Z,7.53
2023-01-10T16:52:42.714Z,7.53
2023-01-10T16:57:42.665Z,7.56
2023-01-10T17:02:42.595Z,7.50
2023-01-10T17:07:42.554Z,7.49
2023-01-10T17:12:42.735Z,7.58
2023-01-10T17:17:42.406Z,7.38
2023-01-10T17:22:42.325Z,7.31
2023-01-10T17:27:42.305Z,7.23
2023-01-10T17:32:43.117Z,7.19
2023-01-10T17:37:42.141Z,7.24
2023-01-10T17:42:42.111Z,7.24
2023-01-10T17:47:42.086Z,7.34
2023-01-10T17:52:41.932Z,7.32
2023-01-10T17:57:41.980Z,7.29
2023-01-10T18:02:42.999Z,7.27
2023-01-10T18:07:41.741Z,7.23
2023-01-10T18:12:41.671Z,7.19
2023-01-10T18:17:41.881Z,7.16
2023-01-10T18:22:41.713Z,7.07
2023-01-10T18:27:41.845Z,6.99
2023-01-10T18:32:41.469Z,7.24
2023-01-10T18:37:41.469Z,7.20
2023-01-10T18:42:41.616Z,7.75
2023-01-10T18:47:41.389Z,8.35
2023-01-10T18:52:41.346Z,7.93
2023-01-10T18:57:41.549Z,7.58
2023-01-10T19:02:41.050Z,7.41
2023-01-10T19:07:41.463Z,7.20
2023-01-10T19:12:40.965Z,6.91
2023-01-10T19:17:40.896Z,6.56
2023-01-10T19:22:40.903Z,6.25
2023-01-10T19:27:40.752Z,6.03
2023-01-10T19:32:40.715Z,5.86
2023-01-10T19:37:40.632Z,5.66
2023-01-10T19:42:40.571Z,9.05
2023-01-10T19:47:40.529Z,11.72
2023-01-10T19:52:40.479Z,9.43
2023-01-10T19:57:40.354Z,8.00
2023-01-10T20:02:40.378Z,6.99
2023-01-10T20:07:40.306Z,6.21
2023-01-10T20:12:40.142Z,5.73
2023-01-10T20:17:40.404Z,5.50
2023-01-10T20:22:40.046Z,5.30
2023-01-10T20:27:40.237Z,4.95
2023-01-10T20:32:39.878Z,4.70
2023-01-10T20:37:40.109Z,4.55
2023-01-10T20:42:40.886Z,4.47
2023-01-10T20:47:39.957Z,4.40
2023-01-10T20:52:39.632Z,4.34
2023-01-10T20:57:39.527Z,4.37
2023-01-10T21:02:39.707Z,4.22
2023-01-10T21:07:39.836Z,4.25
2023-01-10T21:12:39.416Z,4.34
2023-01-10T21:17:39.524Z,4.47
2023-01-10T21:22:39.208Z,4.43
2023-01-10T21:27:39.232Z,4.34
2023-01-10T21:32:39.088Z,4.22
2023-01-10T21:37:40.641Z,4.06
2023-01-10T21:42:39.000Z,4.10
2023-01-10T21:47:38.955Z,4.07
2023-01-10T21:52:38.844Z,3.96
2023-01-10T21:57:39.638Z,3.94
2023-01-10T22:02:38.724Z,4.01
2023-01-10T22:07:38.698Z,4.01
2023-01-10T22:12:38.577Z,4.03
2023-01-10T22:17:38.585Z,4.04
2023-01-10T22:22:38.510Z,4.00
2023-01-10T22:27:38.413Z,3.92
2023-01-10T22:32:38.301Z,3.82
2023-01-10T22:37:38.363Z,3.75
2023-01-10T22:42:38.279Z,3.72
2023-01-10T22:47:38.157Z,3.80
2023-01-10T22:52:38.088Z,3.89
2023-01-10T22:57:46.663Z,3.96
2023-01-10T23:02:39.008Z,3.86
2023-01-10T23:07:37.920Z,3.86
2023-01-10T23:12:37.803Z,3.83
2023-01-10T23:17:37.879Z,3.78
2023-01-10T23:22:37.700Z,3.68
2023-01-10T23:27:37.669Z,3.65
2023-01-10T23:32:37.628Z,3.76
2023-01-10T23:37:38.272Z,3.75
2023-01-10T23:42:37.426Z,3.71
2023-01-10T23:47:37.353Z,3.64
2023-01-10T23:52:37.344Z,3.64
2023-01-10T23:57:37.201Z,3.62
